Portada
METAR-TAF:

METAR-TAF

Aeropuertos :

Sarí, Irán

latitud: 36-38-09N, longitud: 53-11-37E, altitud: 11 m

Observación

El informe se hizo hace 41 minutos, a las 21:00 UTC
Viento 4 kt del este
Temperatura 4°C
Humedad 93%
Presión 1030 hPa
Visibilidad 10 km o más
sin nubes por debajo de 1500 m y sin presencia de cumulonimbus.

METAR: OINZ 082100Z 08004KT CAVOK 04/03 Q1030

Hora: 02:11 (21:41 UTC)


TAF: falta

Observaciones y pronósticos meteorológicos de más de 4000 aeropuertos (mensajes METAR y TAF).

Los puntos amarillos y rojos representan las estaciones disponibles.

Ponga el ratón en el punto deseado para ver el nombre de la estación.

Haga clic para ver las observaciones y los pronósticos meteorológicos.

Para cambiar el mapa : haga clic en los botones verdes con una cruz de color negro para hacer un zoom, en el botón verde con un guión para alejar o en las flechas verdes para mapas adyacentes.


METAR-TAF: